Time;durP1;ratioP1;P1;durP2;ratioP2;P2;SDS_P1;SDS_P2;PMS_P1;PMS_P2;Temp;Humidity;BMP_temperature;BMP_pressure;BME280_temperature;BME280_humidity;BME280_pressure;Samples;Min_cycle;Max_cycle;Signal;HPM_P1;HPM_P2
2022/01/07 00:01:30;;;;;;;0.70;0.70;;;2.80;99.90;;;;;;5057442;28;20044;-84
2022/01/07 00:03:56;;;;;;;0.85;0.85;;;2.80;99.90;;;;;;5059191;28;20044;-84
2022/01/07 00:06:21;;;;;;;0.80;0.80;;;2.80;99.90;;;;;;5078184;28;20078;-85
2022/01/07 00:08:47;;;;;;;0.93;0.93;;;2.80;99.90;;;;;;5056947;28;20044;-85
2022/01/07 00:11:12;;;;;;;2.13;1.38;;;2.80;99.90;;;;;;5072260;28;20124;-85
2022/01/07 00:13:38;;;;;;;0.90;0.90;;;2.80;99.90;;;;;;5050329;28;20049;-84
2022/01/07 00:16:04;;;;;;;1.00;1.00;;;2.90;99.90;;;;;;5058022;28;20044;-85
2022/01/07 00:18:30;;;;;;;0.80;0.80;;;2.80;99.90;;;;;;5076337;28;20071;-85
2022/01/07 00:20:56;;;;;;;0.80;0.80;;;2.80;99.90;;;;;;5062073;28;20045;-85
2022/01/07 00:23:22;;;;;;;1.15;1.10;;;2.80;99.90;;;;;;5078382;28;20117;-84
2022/01/07 00:25:49;;;;;;;2.80;1.75;;;2.80;99.90;;;;;;5078598;28;20078;-85
2022/01/07 00:28:15;;;;;;;0.80;0.80;;;2.80;99.90;;;;;;5057053;28;20040;-82
2022/01/07 00:30:41;;;;;;;0.98;0.98;;;2.80;99.90;;;;;;5076129;28;20041;-84
2022/01/07 00:33:07;;;;;;;1.75;1.65;;;2.80;99.90;;;;;;5069105;28;20567;-84
2022/01/07 00:35:33;;;;;;;0.88;0.88;;;2.80;99.90;;;;;;5053479;28;20067;-85
2022/01/07 00:37:58;;;;;;;0.80;0.80;;;2.80;99.90;;;;;;5075244;28;20068;-85
2022/01/07 00:40:25;;;;;;;1.02;1.00;;;3.10;99.90;;;;;;5077991;28;20052;-85
2022/01/07 00:42:52;;;;;;;0.98;0.98;;;2.80;99.90;;;;;;5076539;28;20174;-84
2022/01/07 00:45:21;;;;;;;1.02;1.00;;;2.80;99.90;;;;;;5077341;28;20104;-84
2022/01/07 00:47:47;;;;;;;1.15;1.08;;;2.80;99.90;;;;;;5059080;28;20054;-85
2022/01/07 00:50:14;;;;;;;0.77;0.77;;;2.70;99.90;;;;;;5078531;28;20056;-85
2022/01/07 00:52:40;;;;;;;3.47;2.53;;;2.70;99.90;;;;;;5062203;28;20056;-84
2022/01/07 00:55:08;;;;;;;0.88;0.88;;;2.70;99.90;;;;;;5061375;28;20045;-85
2022/01/07 00:57:33;;;;;;;0.70;0.70;;;2.70;99.90;;;;;;5057620;28;20068;-85
2022/01/07 00:59:59;;;;;;;0.80;0.80;;;2.60;99.90;;;;;;5058631;28;20107;-82
2022/01/07 01:02:25;;;;;;;0.68;0.68;;;2.60;99.90;;;;;;5060243;28;20063;-84
2022/01/07 01:04:51;;;;;;;1.00;1.00;;;2.60;99.90;;;;;;5059625;28;20067;-84
2022/01/07 01:07:17;;;;;;;0.90;0.90;;;2.60;99.90;;;;;;5076203;28;20358;-83
2022/01/07 01:09:43;;;;;;;1.52;1.42;;;2.50;99.90;;;;;;5078813;28;20044;-83
2022/01/07 01:12:10;;;;;;;0.90;0.90;;;2.50;99.90;;;;;;5074863;28;20045;-84
2022/01/07 01:14:36;;;;;;;0.80;0.80;;;2.40;99.90;;;;;;5071878;28;20045;-84
2022/01/07 01:17:03;;;;;;;5.05;1.27;;;2.40;99.90;;;;;;5054898;28;20151;-84
2022/01/07 01:19:28;;;;;;;1.17;1.13;;;2.40;99.90;;;;;;5073126;28;20416;-84
2022/01/07 01:21:55;;;;;;;1.00;1.00;;;2.40;99.90;;;;;;5058386;28;20041;-83
2022/01/07 01:24:20;;;;;;;1.15;1.15;;;2.30;99.90;;;;;;5075332;28;20037;-85
2022/01/07 01:26:46;;;;;;;0.80;0.80;;;2.30;99.90;;;;;;5058480;28;20109;-83
2022/01/07 01:29:12;;;;;;;3.28;2.22;;;2.30;99.90;;;;;;5074283;28;20037;-85
2022/01/07 01:31:38;;;;;;;0.73;0.73;;;2.30;99.90;;;;;;5078347;28;20137;-84
2022/01/07 01:34:04;;;;;;;0.90;0.90;;;2.30;99.90;;;;;;5066209;28;20080;-83
2022/01/07 01:36:30;;;;;;;1.13;1.13;;;2.30;99.90;;;;;;5059961;28;20119;-84
2022/01/07 01:38:56;;;;;;;1.23;1.23;;;2.30;99.90;;;;;;5080204;28;20059;-84
2022/01/07 01:41:22;;;;;;;0.80;0.80;;;2.20;99.90;;;;;;5067251;28;20037;-84
2022/01/07 01:43:49;;;;;;;0.90;0.90;;;2.20;99.90;;;;;;5085446;28;20036;-83
2022/01/07 01:46:19;;;;;;;0.80;0.80;;;2.20;99.90;;;;;;5052537;28;20131;-84
2022/01/07 01:48:45;;;;;;;1.50;1.40;;;2.20;99.90;;;;;;5071701;28;20037;-84
2022/01/07 01:51:11;;;;;;;1.70;1.48;;;2.20;99.90;;;;;;5056929;28;20040;-84
2022/01/07 01:53:37;;;;;;;2.83;1.45;;;2.10;99.90;;;;;;5057300;28;20055;-84
2022/01/07 01:56:03;;;;;;;1.25;1.15;;;2.20;99.90;;;;;;5047421;28;20072;-84
2022/01/07 01:58:29;;;;;;;0.85;0.85;;;2.20;99.90;;;;;;5054494;28;20059;-83
2022/01/07 02:00:55;;;;;;;1.13;1.13;;;2.10;99.90;;;;;;5062455;28;20540;-83
2022/01/07 02:03:20;;;;;;;1.05;1.05;;;2.10;99.90;;;;;;5055780;28;20120;-85
2022/01/07 02:05:46;;;;;;;7.45;2.63;;;2.20;99.90;;;;;;5059369;28;20043;-85
2022/01/07 02:08:12;;;;;;;1.50;1.40;;;2.10;99.90;;;;;;5063785;28;20043;-84
2022/01/07 02:10:38;;;;;;;0.70;0.70;;;2.10;99.90;;;;;;5074310;28;20071;-84
2022/01/07 02:13:04;;;;;;;1.50;1.45;;;2.10;99.90;;;;;;5045927;28;20045;-84
2022/01/07 02:15:30;;;;;;;0.85;0.85;;;2.10;99.90;;;;;;5050147;28;20044;-83
2022/01/07 02:17:57;;;;;;;1.45;1.10;;;2.10;99.90;;;;;;5048371;28;20041;-83
2022/01/07 02:20:25;;;;;;;0.95;0.95;;;2.10;99.90;;;;;;5073532;28;20347;-83
2022/01/07 02:22:51;;;;;;;1.85;1.30;;;2.10;99.90;;;;;;5059067;28;20102;-83
2022/01/07 02:25:17;;;;;;;0.77;0.77;;;2.10;99.90;;;;;;5052720;28;20075;-83
2022/01/07 02:27:44;;;;;;;0.85;0.85;;;2.10;99.90;;;;;;5060288;28;20041;-84
2022/01/07 02:30:13;;;;;;;1.00;1.00;;;2.10;99.90;;;;;;5061812;28;20087;-84
2022/01/07 02:32:38;;;;;;;1.20;1.10;;;2.10;99.90;;;;;;5072923;28;20045;-84
2022/01/07 02:35:06;;;;;;;1.63;1.42;;;2.10;99.90;;;;;;5053676;28;20048;-84
2022/01/07 02:37:31;;;;;;;1.27;1.17;;;2.10;99.90;;;;;;5066741;28;20055;-83
2022/01/07 02:39:57;;;;;;;0.80;0.80;;;2.10;99.90;;;;;;5068552;28;20037;-83
2022/01/07 02:42:23;;;;;;;0.70;0.70;;;2.10;99.90;;;;;;5078547;28;20454;-83
2022/01/07 02:44:49;;;;;;;0.82;0.82;;;2.10;99.90;;;;;;5069969;28;20113;-84
2022/01/07 02:47:15;;;;;;;0.98;0.95;;;2.10;99.90;;;;;;5076103;28;20048;-84
2022/01/07 02:49:41;;;;;;;0.95;0.93;;;2.00;99.90;;;;;;5052146;28;20051;-84
2022/01/07 02:52:06;;;;;;;1.17;1.08;;;2.10;99.90;;;;;;5073321;28;20045;-84
2022/01/07 02:54:32;;;;;;;0.85;0.85;;;2.10;99.90;;;;;;5071039;28;20045;-84
2022/01/07 02:56:58;;;;;;;0.90;0.90;;;2.00;99.90;;;;;;5073490;28;20037;-84
2022/01/07 02:59:23;;;;;;;0.88;0.88;;;2.00;99.90;;;;;;5074989;28;20037;-84
2022/01/07 03:01:49;;;;;;;0.80;0.80;;;2.00;99.90;;;;;;5064510;28;20113;-84
2022/01/07 03:04:15;;;;;;;0.90;0.90;;;2.10;99.90;;;;;;5080077;28;20115;-84
2022/01/07 03:06:41;;;;;;;0.70;0.70;;;2.20;99.90;;;;;;5059537;28;20055;-84
2022/01/07 03:09:07;;;;;;;0.80;0.80;;;2.10;99.90;;;;;;5073307;28;20040;-84
2022/01/07 03:11:33;;;;;;;1.15;1.08;;;2.10;99.90;;;;;;5058625;28;20064;-84
2022/01/07 03:13:58;;;;;;;1.25;1.15;;;2.10;99.90;;;;;;5062913;28;20097;-84
2022/01/07 03:16:24;;;;;;;2.13;1.17;;;2.10;99.90;;;;;;5060499;28;20065;-84
2022/01/07 03:18:50;;;;;;;1.60;1.35;;;2.10;99.90;;;;;;5072216;28;20080;-84
2022/01/07 03:21:17;;;;;;;0.80;0.80;;;2.00;99.90;;;;;;5078155;28;20033;-83
2022/01/07 03:23:44;;;;;;;1.77;1.67;;;2.10;99.90;;;;;;5059201;28;20123;-82
2022/01/07 03:26:09;;;;;;;0.93;0.93;;;2.10;99.90;;;;;;5070593;28;20040;-84
2022/01/07 03:28:36;;;;;;;0.95;0.95;;;2.10;99.90;;;;;;5078114;28;20048;-84
2022/01/07 03:31:02;;;;;;;1.02;1.02;;;2.10;99.90;;;;;;5073782;28;20044;-83
2022/01/07 03:33:27;;;;;;;0.90;0.90;;;2.10;99.90;;;;;;5075723;28;20040;-84
2022/01/07 03:35:53;;;;;;;1.02;1.02;;;2.10;99.90;;;;;;5060641;28;20109;-83
2022/01/07 03:38:20;;;;;;;0.80;0.80;;;2.10;99.90;;;;;;5075791;28;20055;-84
2022/01/07 03:40:46;;;;;;;0.90;0.90;;;2.10;99.90;;;;;;5074738;28;20499;-83
2022/01/07 03:43:11;;;;;;;0.90;0.90;;;2.10;99.90;;;;;;5075800;28;20048;-84
2022/01/07 03:45:37;;;;;;;0.90;0.90;;;2.00;99.90;;;;;;5060663;28;20045;-85
2022/01/07 03:48:03;;;;;;;0.88;0.88;;;2.10;99.90;;;;;;5075572;28;20950;-84
2022/01/07 03:50:29;;;;;;;1.77;1.67;;;2.10;99.90;;;;;;5080264;28;20501;-84
2022/01/07 03:52:57;;;;;;;0.95;0.95;;;2.10;99.90;;;;;;5076706;28;20350;-84
2022/01/07 03:55:25;;;;;;;0.98;0.90;;;2.10;99.90;;;;;;5074275;28;20056;-84
2022/01/07 03:57:52;;;;;;;0.90;0.90;;;2.10;99.90;;;;;;5072817;28;20481;-84
2022/01/07 04:00:22;;;;;;;0.82;0.82;;;2.10;99.90;;;;;;5078282;28;20048;-84
2022/01/07 04:02:48;;;;;;;0.70;0.70;;;2.10;99.90;;;;;;5054435;28;20047;-84
2022/01/07 04:05:15;;;;;;;1.85;1.10;;;2.10;99.90;;;;;;5057854;28;20099;-82
2022/01/07 04:07:41;;;;;;;1.10;1.10;;;2.10;99.90;;;;;;5059788;28;20095;-84
2022/01/07 04:10:07;;;;;;;0.80;0.80;;;2.20;99.90;;;;;;5077142;28;20036;-84
2022/01/07 04:12:33;;;;;;;0.85;0.85;;;2.20;99.90;;;;;;5078754;28;20052;-83
2022/01/07 04:15:08;;;;;;;0.80;0.80;;;2.10;99.90;;;;;;5081416;28;20048;-84
2022/01/07 04:17:42;;;;;;;0.82;0.82;;;2.20;99.90;;;;;;5058781;28;20033;-84
2022/01/07 04:20:10;;;;;;;1.00;1.00;;;2.10;99.90;;;;;;5063805;28;20048;-84
2022/01/07 04:22:36;;;;;;;0.85;0.85;;;2.20;99.90;;;;;;5073068;28;20052;-84
2022/01/07 04:25:04;;;;;;;0.90;0.90;;;2.10;99.90;;;;;;5076347;28;20041;-83
2022/01/07 04:27:31;;;;;;;0.82;0.82;;;2.20;99.90;;;;;;5059743;28;20100;-84
2022/01/07 04:29:57;;;;;;;1.35;1.30;;;2.20;99.90;;;;;;5054484;28;20041;-84
2022/01/07 04:32:23;;;;;;;0.90;0.90;;;2.20;99.90;;;;;;5056866;28;20148;-84
2022/01/07 04:34:49;;;;;;;1.42;1.33;;;2.50;99.90;;;;;;5057956;28;20044;-84
2022/01/07 04:37:14;;;;;;;1.63;1.55;;;2.20;99.90;;;;;;5052644;28;20327;-84
2022/01/07 04:39:40;;;;;;;1.40;1.30;;;2.20;99.90;;;;;;5059158;28;20044;-84
2022/01/07 04:42:06;;;;;;;0.93;0.90;;;2.20;99.90;;;;;;5060000;28;20055;-84
2022/01/07 04:44:31;;;;;;;2.20;2.00;;;2.20;99.90;;;;;;5079904;28;20032;-83
2022/01/07 04:46:57;;;;;;;1.30;1.20;;;2.30;99.90;;;;;;5052050;28;20094;-84
2022/01/07 04:49:23;;;;;;;11.23;1.50;;;2.20;99.90;;;;;;5074531;28;20105;-84
2022/01/07 04:51:48;;;;;;;1.38;1.27;;;2.20;99.90;;;;;;5054281;28;20037;-84
2022/01/07 04:54:14;;;;;;;1.05;1.05;;;2.20;99.90;;;;;;5076967;28;20079;-83
2022/01/07 04:56:40;;;;;;;1.27;1.17;;;2.20;99.90;;;;;;5081356;28;20045;-84
2022/01/07 04:59:05;;;;;;;1.50;1.40;;;2.30;99.90;;;;;;5068920;28;20063;-85
2022/01/07 05:01:31;;;;;;;0.80;0.80;;;2.30;99.90;;;;;;5077736;28;20101;-83
2022/01/07 05:03:56;;;;;;;0.65;0.65;;;2.30;99.90;;;;;;5057857;28;20037;-84
2022/01/07 05:07:04;;;;;;;3.70;1.60;;;2.30;99.90;;;;;;5066305;28;20442;-83
2022/01/07 05:09:16;;;;;;;1.33;1.27;;;2.20;99.90;;;;;;5065853;28;20072;-84
2022/01/07 05:11:43;;;;;;;1.83;1.45;;;2.30;99.90;;;;;;5075805;28;20465;-84
2022/01/07 05:14:09;;;;;;;0.80;0.80;;;2.30;99.90;;;;;;5054147;28;20079;-84
2022/01/07 05:16:34;;;;;;;1.75;1.65;;;2.30;99.90;;;;;;5059194;28;20040;-83
2022/01/07 05:19:01;;;;;;;0.93;0.93;;;2.40;99.90;;;;;;5078742;28;20048;-84
2022/01/07 05:21:27;;;;;;;0.75;0.75;;;2.40;99.90;;;;;;5055563;28;20040;-84
2022/01/07 05:23:52;;;;;;;0.70;0.70;;;2.40;99.90;;;;;;5075486;28;20045;-84
2022/01/07 05:26:18;;;;;;;2.88;1.33;;;2.40;99.90;;;;;;5076529;28;20101;-83
2022/01/07 05:28:44;;;;;;;0.90;0.90;;;2.40;99.90;;;;;;5054985;28;20539;-83
2022/01/07 05:31:09;;;;;;;4.00;1.38;;;2.40;99.90;;;;;;5071226;28;20687;-84
2022/01/07 05:33:35;;;;;;;0.95;0.95;;;2.40;99.90;;;;;;5076800;28;20071;-84
2022/01/07 05:36:00;;;;;;;5.00;1.35;;;2.40;99.90;;;;;;5053143;28;20056;-84
2022/01/07 05:38:26;;;;;;;0.77;0.77;;;2.50;99.90;;;;;;5073439;28;20622;-84
2022/01/07 05:40:51;;;;;;;0.90;0.90;;;2.50;99.90;;;;;;5061859;28;20041;-83
2022/01/07 05:43:17;;;;;;;0.77;0.77;;;2.50;99.90;;;;;;5080233;28;20052;-83
2022/01/07 05:45:45;;;;;;;1.00;1.00;;;2.50;99.90;;;;;;5076538;28;20048;-83
2022/01/07 05:48:11;;;;;;;1.30;1.23;;;2.50;99.90;;;;;;5069865;28;20120;-83
2022/01/07 05:50:37;;;;;;;1.33;1.10;;;2.50;99.90;;;;;;5074463;28;20627;-83
2022/01/07 05:53:03;;;;;;;0.98;0.95;;;2.50;99.90;;;;;;5056828;28;20108;-83
2022/01/07 05:55:28;;;;;;;0.85;0.85;;;2.50;99.90;;;;;;5071264;28;20047;-83
2022/01/07 05:57:54;;;;;;;0.70;0.70;;;2.50;99.90;;;;;;5058286;28;20489;-84
2022/01/07 06:00:19;;;;;;;1.60;1.50;;;2.50;99.90;;;;;;5077884;28;20049;-84
2022/01/07 06:02:45;;;;;;;4.07;1.55;;;2.50;99.90;;;;;;5055667;28;20519;-85
2022/01/07 06:05:11;;;;;;;0.90;0.90;;;2.60;99.90;;;;;;5071818;28;20118;-85
2022/01/07 06:07:37;;;;;;;1.33;1.25;;;2.60;99.90;;;;;;5050965;28;20036;-85
2022/01/07 06:10:06;;;;;;;2.58;2.10;;;2.60;99.90;;;;;;5053115;28;20036;-85
2022/01/07 06:12:33;;;;;;;0.85;0.85;;;2.60;99.90;;;;;;5051617;28;20109;-85
2022/01/07 06:14:58;;;;;;;0.80;0.80;;;2.50;99.90;;;;;;5060004;28;20044;-83
2022/01/07 06:17:24;;;;;;;0.80;0.80;;;2.60;99.90;;;;;;5056924;28;20060;-83
2022/01/07 06:19:50;;;;;;;0.90;0.90;;;2.60;99.90;;;;;;5071728;28;20053;-85
2022/01/07 06:22:16;;;;;;;1.55;1.45;;;2.60;99.90;;;;;;5050244;28;20140;-82
2022/01/07 06:24:41;;;;;;;0.82;0.82;;;2.60;99.90;;;;;;5055578;28;20071;-81
2022/01/07 06:27:07;;;;;;;0.82;0.82;;;2.60;99.90;;;;;;5072329;28;20190;-84
2022/01/07 06:29:33;;;;;;;0.80;0.80;;;2.60;99.90;;;;;;5065446;28;20055;-84
2022/01/07 06:31:58;;;;;;;1.08;1.08;;;2.60;99.90;;;;;;5066825;28;20045;-82
2022/01/07 06:34:24;;;;;;;0.93;0.93;;;2.60;99.90;;;;;;5073729;28;20076;-84
2022/01/07 06:36:50;;;;;;;1.40;1.30;;;2.60;99.90;;;;;;5077586;28;20049;-85
2022/01/07 06:39:19;;;;;;;1.23;1.13;;;2.70;99.90;;;;;;5082796;28;20059;-84
2022/01/07 06:41:48;;;;;;;0.77;0.77;;;2.60;99.90;;;;;;5068797;28;20067;-84
2022/01/07 06:44:14;;;;;;;1.33;1.23;;;2.60;99.90;;;;;;5071858;28;20037;-85
2022/01/07 06:46:40;;;;;;;0.93;0.93;;;2.60;99.90;;;;;;5062495;28;20112;-84
2022/01/07 06:49:07;;;;;;;1.35;1.25;;;2.60;99.90;;;;;;5057650;28;20045;-84
2022/01/07 06:51:32;;;;;;;0.95;0.95;;;2.60;99.90;;;;;;5077147;28;20050;-84
2022/01/07 06:53:59;;;;;;;0.75;0.75;;;2.60;99.90;;;;;;5079393;28;20036;-83
2022/01/07 06:56:24;;;;;;;0.80;0.80;;;2.60;99.90;;;;;;5070541;28;20037;-83
2022/01/07 06:58:50;;;;;;;0.77;0.77;;;2.60;99.90;;;;;;5068222;28;20124;-85
2022/01/07 07:01:15;;;;;;;1.33;1.23;;;2.60;99.90;;;;;;5076935;28;20041;-84
2022/01/07 07:03:41;;;;;;;2.35;1.25;;;2.60;99.90;;;;;;5068018;28;20105;-84
2022/01/07 07:06:07;;;;;;;0.90;0.90;;;2.60;99.90;;;;;;5062845;28;20044;-83
2022/01/07 07:08:33;;;;;;;1.00;1.00;;;2.60;99.90;;;;;;5067305;28;20037;-83
2022/01/07 07:10:58;;;;;;;0.85;0.85;;;2.60;99.90;;;;;;5048053;28;20075;-83
2022/01/07 07:13:24;;;;;;;0.93;0.93;;;2.60;99.90;;;;;;5066413;28;20042;-83
2022/01/07 07:15:49;;;;;;;0.85;0.85;;;2.60;99.90;;;;;;5067667;28;20044;-83
2022/01/07 07:18:17;;;;;;;1.00;1.00;;;2.60;99.90;;;;;;5052096;28;20064;-82
2022/01/07 07:20:43;;;;;;;1.55;1.17;;;2.60;99.90;;;;;;5057468;28;20397;-83
2022/01/07 07:23:09;;;;;;;2.15;1.20;;;2.60;99.90;;;;;;5058559;28;20104;-82
2022/01/07 07:25:35;;;;;;;0.95;0.95;;;2.70;99.90;;;;;;5061151;28;20036;-82
2022/01/07 07:28:00;;;;;;;1.60;1.50;;;2.70;99.90;;;;;;5054079;28;20056;-84
2022/01/07 07:30:34;;;;;;;2.47;2.30;;;2.80;99.90;;;;;;5058833;28;20040;-83
2022/01/07 07:33:09;;;;;;;0.93;0.93;;;2.70;99.90;;;;;;5075280;28;20068;-84
2022/01/07 07:38:13;;;;;;;1.10;1.10;;;2.70;99.90;;;;;;5078131;28;20063;-83
2022/01/07 07:40:38;;;;;;;0.80;0.80;;;2.80;99.90;;;;;;5070414;28;20549;-84
2022/01/07 07:43:04;;;;;;;0.80;0.80;;;2.80;99.90;;;;;;5061050;28;20080;-85
2022/01/07 07:45:30;;;;;;;0.90;0.90;;;2.80;99.90;;;;;;5076329;28;20036;-84
2022/01/07 07:47:55;;;;;;;1.55;1.42;;;2.80;99.90;;;;;;5053015;28;20091;-83
2022/01/07 07:50:21;;;;;;;0.80;0.80;;;2.80;99.90;;;;;;5054288;28;20416;-84
2022/01/07 07:52:46;;;;;;;0.82;0.82;;;2.80;99.90;;;;;;5064516;28;20039;-83
2022/01/07 07:55:12;;;;;;;1.10;1.10;;;2.80;99.90;;;;;;5078287;28;20057;-85
2022/01/07 07:57:38;;;;;;;2.60;2.45;;;2.80;99.90;;;;;;5073250;28;20051;-83
2022/01/07 08:00:05;;;;;;;1.00;1.00;;;2.90;99.90;;;;;;5076158;28;20040;-85
2022/01/07 08:02:31;;;;;;;0.90;0.90;;;2.90;99.90;;;;;;5074276;28;20185;-84
2022/01/07 08:04:57;;;;;;;1.27;1.17;;;2.90;99.90;;;;;;5073970;28;20175;-84
2022/01/07 08:07:23;;;;;;;2.03;1.92;;;2.90;99.90;;;;;;5060492;28;20047;-83
2022/01/07 08:09:50;;;;;;;1.42;1.33;;;3.00;99.90;;;;;;5070378;28;20045;-84
2022/01/07 08:12:20;;;;;;;1.95;1.15;;;3.00;99.90;;;;;;5060366;28;20036;-84
2022/01/07 08:17:30;;;;;;;14.55;2.13;;;3.10;99.90;;;;;;5066180;28;20094;-84
2022/01/07 08:19:56;;;;;;;0.90;0.90;;;3.10;99.90;;;;;;5062197;28;20056;-83
2022/01/07 08:22:21;;;;;;;1.08;1.00;;;3.10;99.90;;;;;;5056926;28;20487;-84
2022/01/07 08:24:47;;;;;;;0.93;0.93;;;3.10;99.90;;;;;;5060431;28;20036;-83
2022/01/07 08:27:12;;;;;;;1.00;1.00;;;3.10;99.90;;;;;;5072413;28;20048;-83
2022/01/07 08:29:40;;;;;;;1.42;1.33;;;3.20;99.90;;;;;;5059461;28;20055;-84
2022/01/07 08:34:53;;;;;;;1.35;1.25;;;3.20;99.90;;;;;;5078705;28;20052;-83
2022/01/07 08:37:29;;;;;;;1.17;1.10;;;3.20;99.90;;;;;;5071858;28;20056;-84
2022/01/07 08:39:56;;;;;;;1.05;1.05;;;3.30;99.90;;;;;;5075734;28;20125;-83
2022/01/07 08:42:23;;;;;;;0.90;0.90;;;3.30;99.90;;;;;;5081266;28;20136;-83
2022/01/07 08:44:52;;;;;;;1.10;1.10;;;3.30;99.90;;;;;;5055293;28;20033;-83
2022/01/07 08:47:20;;;;;;;1.60;1.50;;;3.40;99.90;;;;;;5073651;28;20041;-84
2022/01/07 08:49:47;;;;;;;0.82;0.82;;;3.40;99.90;;;;;;5078627;28;20040;-84
2022/01/07 08:52:13;;;;;;;1.00;0.90;;;3.40;99.90;;;;;;5077638;28;20074;-83
2022/01/07 08:54:39;;;;;;;1.38;1.27;;;3.40;99.90;;;;;;5076552;28;20029;-83
2022/01/07 08:57:05;;;;;;;1.27;1.17;;;3.50;99.90;;;;;;5073518;28;20041;-83
2022/01/07 08:59:30;;;;;;;0.90;0.90;;;3.50;99.90;;;;;;5073029;28;20074;-83
2022/01/07 09:01:56;;;;;;;1.70;1.60;;;3.60;99.90;;;;;;5076207;28;20043;-83
2022/01/07 09:04:22;;;;;;;0.93;0.93;;;3.60;99.90;;;;;;5071716;28;20766;-81
2022/01/07 09:06:48;;;;;;;1.05;1.00;;;3.60;99.90;;;;;;5073999;28;20048;-84
2022/01/07 09:09:14;;;;;;;0.90;0.90;;;3.60;99.90;;;;;;5058486;28;20049;-83
2022/01/07 09:11:43;;;;;;;1.63;1.52;;;3.70;99.90;;;;;;5077901;28;20555;-82
2022/01/07 09:14:08;;;;;;;2.72;1.77;;;3.70;99.90;;;;;;5076153;28;20037;-82
2022/01/07 09:16:34;;;;;;;1.25;1.15;;;3.70;99.90;;;;;;5076160;28;20123;-83
2022/01/07 09:19:00;;;;;;;1.10;1.10;;;3.70;99.90;;;;;;5072360;28;20136;-82
2022/01/07 09:21:26;;;;;;;2.15;1.15;;;3.70;99.90;;;;;;5076049;28;20044;-83
2022/01/07 09:23:52;;;;;;;3.60;2.45;;;3.80;99.90;;;;;;5068796;28;20033;-83
2022/01/07 09:26:18;;;;;;;1.27;1.17;;;3.80;99.90;;;;;;5051287;28;20106;-83
2022/01/07 09:28:44;;;;;;;1.30;1.20;;;3.80;99.90;;;;;;5047801;28;20037;-82
2022/01/07 09:31:11;;;;;;;0.73;0.73;;;3.80;99.90;;;;;;5065301;28;20044;-83
2022/01/07 09:33:37;;;;;;;0.90;0.90;;;3.80;99.90;;;;;;5070803;28;20057;-82
2022/01/07 09:36:03;;;;;;;1.13;1.02;;;3.90;99.90;;;;;;5083171;28;20054;-83
2022/01/07 09:38:28;;;;;;;0.80;0.80;;;3.90;99.90;;;;;;5075838;28;20051;-83
2022/01/07 09:40:54;;;;;;;0.80;0.80;;;3.90;99.90;;;;;;5057848;28;20047;-83
2022/01/07 09:43:20;;;;;;;0.80;0.80;;;3.90;99.90;;;;;;5068798;28;20048;-82
2022/01/07 09:45:45;;;;;;;0.82;0.82;;;4.00;99.90;;;;;;5057468;28;20040;-84
2022/01/07 09:48:11;;;;;;;0.73;0.73;;;4.00;99.90;;;;;;5074955;28;20512;-83
2022/01/07 09:50:37;;;;;;;2.72;1.27;;;4.00;99.90;;;;;;5070925;28;20032;-82
2022/01/07 09:53:08;;;;;;;1.33;1.00;;;4.00;99.90;;;;;;5077250;28;20048;-81
2022/01/07 09:55:34;;;;;;;1.33;1.23;;;3.90;99.90;;;;;;5076325;28;20040;-82
2022/01/07 09:58:01;;;;;;;1.33;1.23;;;4.00;99.90;;;;;;5072141;28;20622;-82
2022/01/07 10:00:33;;;;;;;0.90;0.90;;;4.00;99.90;;;;;;5078476;28;20075;-83
2022/01/07 10:03:03;;;;;;;1.10;1.10;;;4.00;99.90;;;;;;5073517;28;20072;-80
2022/01/07 10:05:30;;;;;;;0.80;0.80;;;4.10;99.90;;;;;;5075878;28;20189;-81
2022/01/07 10:07:56;;;;;;;0.88;0.88;;;4.10;99.90;;;;;;5056837;28;20453;-82
2022/01/07 10:10:22;;;;;;;0.75;0.75;;;4.10;99.90;;;;;;5073369;28;20049;-83
2022/01/07 10:13:00;;;;;;;0.68;0.68;;;4.10;99.90;;;;;;5071496;28;20095;-83
2022/01/07 10:15:28;;;;;;;1.15;1.13;;;4.00;99.90;;;;;;5056052;28;20465;-83
2022/01/07 10:18:06;;;;;;;0.80;0.80;;;3.90;99.90;;;;;;5065139;28;20070;-83
2022/01/07 10:20:36;;;;;;;0.70;0.70;;;3.80;99.90;;;;;;5069431;28;20071;-83
2022/01/07 10:23:05;;;;;;;0.70;0.70;;;3.80;99.90;;;;;;5046330;28;20060;-81
2022/01/07 10:25:39;;;;;;;0.90;0.90;;;3.70;99.90;;;;;;5069190;28;20091;-82
2022/01/07 10:28:10;;;;;;;0.90;0.90;;;3.70;99.90;;;;;;5056670;28;20558;-83
2022/01/07 10:30:44;;;;;;;1.15;1.05;;;3.70;99.90;;;;;;5071530;28;20108;-84
2022/01/07 10:33:20;;;;;;;0.70;0.70;;;3.70;99.90;;;;;;5057466;28;20424;-83
2022/01/07 10:35:48;;;;;;;0.95;0.95;;;3.70;99.90;;;;;;5072287;28;20049;-84
2022/01/07 10:38:20;;;;;;;0.60;0.60;;;3.80;99.90;;;;;;5072786;28;20044;-84
2022/01/07 10:40:48;;;;;;;0.77;0.77;;;3.80;99.90;;;;;;5058066;28;20029;-84
2022/01/07 10:43:24;;;;;;;0.80;0.80;;;3.90;99.90;;;;;;5067913;28;20056;-85
2022/01/07 10:45:53;;;;;;;0.80;0.80;;;4.00;99.90;;;;;;5067403;28;20052;-84
2022/01/07 10:48:22;;;;;;;0.80;0.80;;;4.10;99.90;;;;;;5049505;28;20055;-85
2022/01/07 10:50:50;;;;;;;0.70;0.70;;;4.30;99.90;;;;;;5057176;28;20044;-85
2022/01/07 10:53:17;;;;;;;0.90;0.90;;;4.50;99.90;;;;;;5055130;28;20446;-81
2022/01/07 10:56:05;;;;;;;0.75;0.75;;;4.60;99.90;;;;;;5074359;28;20182;-83
2022/01/07 10:58:43;;;;;;;0.70;0.70;;;4.50;99.90;;;;;;5073924;28;20044;-83
2022/01/07 11:01:38;;;;;;;0.90;0.90;;;4.50;99.90;;;;;;5079509;28;20037;-84
2022/01/07 11:04:07;;;;;;;0.80;0.80;;;4.40;99.90;;;;;;5046989;28;20136;-83
2022/01/07 11:06:34;;;;;;;0.73;0.73;;;4.30;99.90;;;;;;5057569;28;20032;-83
2022/01/07 11:09:03;;;;;;;0.70;0.70;;;4.20;99.90;;;;;;5071691;28;20068;-84
2022/01/07 11:11:30;;;;;;;0.80;0.80;;;4.20;99.90;;;;;;5067304;28;20077;-83
2022/01/07 11:14:07;;;;;;;0.80;0.80;;;4.10;99.90;;;;;;5077323;28;20044;-84
2022/01/07 11:16:35;;;;;;;0.70;0.70;;;4.10;99.90;;;;;;5064568;28;20490;-83
2022/01/07 11:19:02;;;;;;;0.68;0.68;;;4.00;99.90;;;;;;5069971;28;20044;-83
2022/01/07 11:21:28;;;;;;;0.70;0.70;;;4.00;99.90;;;;;;5069476;28;20087;-84
2022/01/07 11:23:53;;;;;;;1.27;1.17;;;4.00;99.90;;;;;;5068311;28;20124;-83
2022/01/07 11:26:19;;;;;;;0.70;0.70;;;4.00;99.90;;;;;;5068844;28;20044;-85
2022/01/07 11:28:59;;;;;;;1.02;0.80;;;3.90;99.90;;;;;;5067563;28;21031;-84
2022/01/07 11:31:26;;;;;;;0.73;0.73;;;3.90;99.90;;;;;;5071945;28;20068;-83
2022/01/07 11:34:22;;;;;;;0.68;0.68;;;3.90;99.90;;;;;;5055081;28;20053;-84
2022/01/07 11:36:48;;;;;;;0.70;0.70;;;3.80;99.90;;;;;;5074749;28;21691;-83
2022/01/07 11:39:14;;;;;;;0.60;0.60;;;3.80;99.90;;;;;;5049552;28;20036;-82
2022/01/07 11:41:55;;;;;;;0.80;0.80;;;3.90;99.90;;;;;;5058957;28;20093;-83
2022/01/07 11:44:26;;;;;;;0.70;0.70;;;4.00;99.90;;;;;;5076711;28;20460;-82
2022/01/07 11:47:11;;;;;;;1.00;1.00;;;4.00;99.90;;;;;;5078483;28;20063;-83
2022/01/07 11:49:36;;;;;;;0.68;0.68;;;4.10;99.90;;;;;;5074641;28;20044;-82
2022/01/07 11:52:28;;;;;;;1.00;1.00;;;4.10;99.90;;;;;;5073097;28;20033;-82
2022/01/07 11:55:15;;;;;;;3.20;1.52;;;4.20;99.90;;;;;;5080579;28;20093;-82
2022/01/07 11:57:57;;;;;;;0.70;0.70;;;4.20;99.90;;;;;;5085435;28;20040;-82
2022/01/07 12:00:51;;;;;;;0.98;0.98;;;4.30;99.90;;;;;;5069686;28;20037;-82
2022/01/07 12:03:29;;;;;;;0.70;0.70;;;4.30;99.90;;;;;;5076912;28;20094;-82
2022/01/07 12:05:55;;;;;;;0.80;0.80;;;4.30;99.90;;;;;;5069850;28;20147;-83
2022/01/07 12:08:37;;;;;;;0.93;0.93;;;4.30;99.90;;;;;;5071478;28;20052;-82
2022/01/07 12:11:10;;;;;;;0.90;0.90;;;4.30;99.90;;;;;;5073096;28;20044;-82
2022/01/07 12:13:39;;;;;;;2.97;0.98;;;4.30;99.90;;;;;;5078494;28;20032;-82
2022/01/07 12:16:06;;;;;;;1.00;1.00;;;4.20;99.90;;;;;;5073352;28;20037;-82
2022/01/07 12:18:33;;;;;;;0.88;0.88;;;4.20;99.90;;;;;;5061439;28;20049;-82
2022/01/07 12:20:59;;;;;;;1.13;1.02;;;4.20;99.90;;;;;;5070147;28;20055;-83
2022/01/07 12:23:24;;;;;;;0.88;0.88;;;4.20;99.90;;;;;;5078982;28;20056;-84
2022/01/07 12:25:52;;;;;;;2.15;2.05;;;4.20;99.90;;;;;;5061070;28;20054;-85
2022/01/07 12:28:18;;;;;;;0.60;0.60;;;4.20;99.90;;;;;;5075381;28;20048;-85
2022/01/07 12:30:45;;;;;;;1.08;1.00;;;4.10;99.90;;;;;;5072129;28;20073;-82
2022/01/07 12:33:11;;;;;;;0.90;0.90;;;4.10;99.90;;;;;;5077895;28;20083;-82
2022/01/07 12:35:37;;;;;;;0.90;0.90;;;4.10;99.90;;;;;;5076333;28;20049;-83
2022/01/07 12:38:18;;;;;;;0.70;0.70;;;4.10;99.90;;;;;;5060704;28;20045;-83
2022/01/07 12:40:52;;;;;;;0.70;0.70;;;4.10;99.90;;;;;;5069796;28;20138;-84
2022/01/07 12:43:21;;;;;;;0.75;0.75;;;4.20;99.90;;;;;;5079053;28;20068;-84
2022/01/07 12:46:04;;;;;;;0.80;0.80;;;4.20;99.90;;;;;;5059712;28;20051;-83
2022/01/07 12:48:35;;;;;;;1.30;1.20;;;4.20;99.90;;;;;;5067308;28;20497;-84
2022/01/07 12:51:03;;;;;;;0.80;0.80;;;4.20;99.90;;;;;;5068515;28;20072;-86
2022/01/07 12:53:29;;;;;;;0.90;0.90;;;4.20;99.90;;;;;;5069472;28;20033;-83
2022/01/07 12:55:54;;;;;;;0.70;0.70;;;4.20;99.90;;;;;;5077687;28;20097;-85
2022/01/07 12:58:27;;;;;;;0.70;0.70;;;4.10;99.90;;;;;;5054198;28;20045;-84
2022/01/07 13:00:53;;;;;;;0.80;0.80;;;4.20;99.90;;;;;;5073958;28;20040;-82
2022/01/07 13:03:25;;;;;;;0.70;0.70;;;4.20;99.90;;;;;;5074798;28;20045;-83
2022/01/07 13:05:51;;;;;;;3.55;2.08;;;4.20;99.90;;;;;;5066552;28;20072;-82
2022/01/07 13:08:19;;;;;;;0.70;0.70;;;4.20;99.90;;;;;;5071892;28;20048;-82